Dodge City, KS

8:04 PM CDT on October 21, 2014 (GMT -0500)
Summerlon | Change Station
CLOSE
Current Station
Personal Weather Station
Location: Dodge City, KS
Elevation: 2586 ft
Nearby Weather Stations

Elev 2586 ft 37.78 °N, 100.00 °W | Updated 24 seconds ago

Clear
Clear
69.2 °F
Feels Like 69.2 °F
N
8.0
Wind Variable Wind from South
Gusts 13.0 mph

Today
High -- | Low -- °F
--% Chance of Precip.
Yesterday
High -- | Low -- °F
Precip. -- in
7:54 AM 6:54 PM
Waning Crescent, 4% visible
Pressure 29.95 in
Visibility 10.0 miles
Clouds Few 8000 ft
Dew Point 54 °F
Humidity 58%
Rainfall 0.00 in
Snow Depth Not available.
UV 0 out of 12
Pollen 3.00 out of 12
Air Quality Not available.
Flu Activity No Activity
METAR KDDC 220052Z AUTO 16011KT 10SM FEW080 21/11 A3000 RMK AO2 SLP142 T02060106

More Conditions Fewer Conditions

Pressure 29.95 in
Visibility 10.0 miles
Clouds Few 8000 ft
Dew Point 54 °F
Humidity 58%
Rainfall 0.00 in
Snow Depth Not available.
UV 0 out of 12
Pollen 3.00 out of 12
Air Quality Not available.
Flu Activity No Activity
METAR KDDC 220052Z AUTO 16011KT 10SM FEW080 21/11 A3000 RMK AO2 SLP142 T02060106

More Conditions Fewer Conditions

10-Day Weather Forecast

Almanac

Astronomy

Oct. 21, 2014 Rise Set
Actual Time 7:54 AM CDT 6:54 PM CDT
Civil Twilight 7:27 AM CDT 7:21 PM CDT
Nautical Twilight 6:57 AM CDT 7:51 PM CDT
Astronomical Twilight 6:26 AM CDT 8:22 PM CDT
Moon 5:42 AM CDT (10/21) 5:47 PM CDT (10/21)
Length of Visible Light 11h 53m
Length of Day
11h 00m
Tomorrow will be 2m 17s shorter.
Waning Crescent, 4% of the Moon is Illuminated
Today
Waning Crescent
Oct 23
New
Oct 30
First Quarter
Nov 6
Full
Nov 14
Last Quarter

Today's Extremes

State Highs State Lows

Community

WunderPhotos

Upload Photos

1,763,836 photos uploaded!

Nearby

Snow Depth

Station Depth Elevation
No new snow has been reported.

Earthquake Activity

City Distance Mag. Time & Date
Mooreland, Oklahoma 103 miles 2.6 11:34 AM CDT
2014-10-21
Mooreland, Oklahoma 103 miles 2.7 11:18 AM CDT
2014-10-21
Cherokee, Oklahoma 128 miles 2.5 8:27 AM CDT
2014-10-21
Helena, Oklahoma 127 miles 3.0 10:35 AM CDT
2014-10-20
Minimum magnitude displayed is 2.5.

Coastal Water Temperatures

Place Temperature
No Stations Reporting

Nearby Weather Stations